• Join FlightAware (Why Join?)
  • Login
  • US Flag 
12:16PM EDT


 

Airport Tracker/Info


-or-


 

Live Flight TrackerFlight Track Log ✈ SWA253 ✈ 09-Apr-2013 ✈ KOAK - KBUR

Flight Track Log - Related Links

Times and Time Zones

All times are in EDT time to prevent confusion due to time zone crossing. See the SWA253 flight status page for this flight to view local times or setup timezone preferences in your user account.

Time Position Orientation Groundspeed Altitude Reporting Facility
EDT Latitude Longitude Course Direction KTS MPH feet Rate Location/Type
10:42PM 37.7186 -122.2381 150° Southeast 139 160 27,000  Level Oakland Center
10:43PM 37.7442 -122.2867 304° West 186 214 4,000 -9,300 Descending Oakland Center
10:44PM 37.7544 -122.3633 280° West 240 276 8,200 3,840 Climbing Oakland Center
10:45PM 37.7167 -122.4167 228° Southwest 303 349 10,900 3,120 Climbing Northern Cal TRACON
10:46PM 37.6167 -122.3333 147° Southeast 372 428 14,100 2,880 Climbing Northern Cal TRACON
10:47PM 37.5344 -122.2475 140° Southeast 375 432 17,600 2,460 Climbing Oakland Center
10:48PM 37.3232 -122.3570 150° Southeast  Level FlightAware Approximate
10:48PM 37.4458 -122.1567 141° Southeast 404 465 19,600  Level Oakland Center
10:49PM 37.3544 -122.0647 141° Southeast 418 481 22,900 3,300 Climbing Oakland Center
10:50PM 37.2625 -121.9733 142° Southeast 423 487 26,400 1,980 Climbing Oakland Center
10:51PM 37.1508 -121.8594 141° Southeast 435 501 27,000 240 Climbing Oakland Center
10:52PM 37.0481 -121.7581 142° Southeast 467 537 27,000  Level Oakland Center
10:53PM 36.9464 -121.6558 141° Southeast 470 541 27,000  Level Oakland Center
10:54PM 36.8439 -121.5531 141° Southeast 473 544 27,000  Level Oakland Center
10:55PM 36.7383 -121.4469 141° Southeast 471 542 27,000  Level Oakland Center
10:56PM 36.6361 -121.3458 142° Southeast 469 540 27,000  Level Oakland Center
10:58PM 36.5347 -121.2450 141° Southeast 469 540 27,000  Level Oakland Center
10:59PM 36.4303 -121.1453 142° Southeast 472 543 27,000  Level Oakland Center
11:00PM 36.3267 -121.0447 142° Southeast 473 544 27,000  Level Oakland Center
11:01PM 36.2239 -120.9433 141° Southeast 473 544 27,000  Level Oakland Center
11:02PM 36.1186 -120.8419 142° Southeast 477 549 27,000  Level Oakland Center
11:03PM 36.0142 -120.7406 142° Southeast 478 550 27,000  Level Oakland Center
11:04PM 35.9097 -120.6406 142° Southeast 477 549 27,000  Level Oakland Center
11:05PM 35.7831 -120.5183 142° Southeast 481 554 27,000  Level Oakland Center
11:06PM 35.6758 -120.4169 142° Southeast 484 557 27,000  Level Oakland Center
11:07PM 35.5700 -120.3161 142° Southeast 480 552 27,000  Level Oakland Center
11:08PM 35.4669 -120.2178 142° Southeast 483 556 27,000  Level Oakland Center
11:09PM 35.3531 -120.1086 142° Southeast 485 558 27,000  Level Oakland Center
11:10PM 35.2453 -120.0072 142° Southeast 485 558 27,000  Level Oakland Center
11:11PM 35.1389 -119.9075 143° Southeast 482 555 27,000 -300 Level Oakland Center
11:12PM 35.0414 -119.7956 137° Southeast 479 551 26,500 -1,440 Descending Oakland Center
11:13PM 34.9547 -119.6767 132° Southeast 469 540 24,100 -2,340 Descending Oakland Center
11:14PM 34.8708 -119.5639 132° Southeast 456 525 21,800 -2,280 Descending Oakland Center
11:15PM 34.7897 -119.4547 132° Southeast 442 509 19,500 -2,160 Descending Oakland Center
11:16PM 34.7133 -119.3503 132° Southeast 423 487 17,500 -2,160 Descending Oakland Center
11:17PM 34.6378 -119.2494 132° Southeast 408 470 15,200 -2,280 Descending Oakland Center